Gwynn Oak, Maryland
Current Conditions -  °F | °C
As of 9:54 AM on Tuesday 21 Oct 2014 (Local Time) from KBWI Reporting Station
Scattered Clouds Scattered Clouds  
Wind Chill: 15°   Ceiling: Unl
Heat Index: 15°   Visibility: 10mi
Dew Point: 10°   Wind: 0mph
Humidity: 72%   Direction: NA
Pressure: 29.88"   Gusts: NA
Location:  39.32°N, 76.73°W
Report Text: KBWI 211354Z 00000KT 10SM FEW110 SCT250 15/10 A2988 RMK AO2 SLP117 T01500100
Loading
Personal Weather Stations






























Interactive Weather Map
Tropical Storm Tracking
New forecast layout! Learn more

10-Day Weather Forecast

Advertisements
Track Severe Weather on mobile